1971 Tropical Cyclone DORA (1971041S20153)


IBTrACS version v04r00. Visit IBTrACS website for data access.
Please direct all questions to the IBTrACS Q and A forum

Storm track - Intensity - Wind Radii - Intensity Data - Source Data - All data

Summary Information

Storm ID 1971041S20153
Start Feb 10 11Z
Landfall Feb 17 11Z
Max Intensity 60 kt (Feb 17 06Z), 990 mb (Feb 11 11Z)
End Feb 17 18Z
ATCF IDs ,SH151971
Track status Best track data.

Storm track plot

Map of storm track

Intensity plots

Map of storm track

Radial wind information

No radial wind information for this storm


Position and Intensity Table

BASIN ISO_TIME_________ NATURE LAT LON WMO WIND WMO PRES USA WIND BOM PRES WELLINGTON WIND WELLINGTON PRES DS824 WIND DS824 PRES TD9636 WIND NEUMANN WIND NEUMANN PRES
degrees north degrees east kts mb kts mb kts mb kts mb kts kts mb
SP 1971-02-10 11:00:00 NR -19.50 152.70 1001 1001 20
SP 12:00:00 TS -19.59 152.73 20 1000 30 1001 20 25 1001
SP 15:00:00 TS -19.85 152.83 22 1000 31 1000 21 27 1000
SP 18:00:00 TS -20.11 153.00 25 1000 32 999 22 30 1000
SP 20:00:00 TS -20.28 153.17 1000 25 1000 33 998 23 31 999
SP 21:00:00 TS -20.36 153.27 25 999 33 998 24 32 999
SP 23:00:00 TS -20.51 153.51 998 25 998 34 998 25 34 998
SP 1971-02-11 00:00:00 TS -20.57 153.65 25 997 35 998 24 35 998
SP 03:00:00 TS -20.69 154.10 25 995 37 996 24 37 996
SP 06:00:00 TS -20.80 154.63 25 993 40 994 23 40 994
SP 09:00:00 TS -20.95 155.19 22 991 42 992 22 42 992
SP 11:00:00 TS -21.09 155.59 990 20 990 44 990 22 44 990
SP 12:00:00 TS -21.20 155.82 20 990 40 990 45 990 21 45 990
SP 15:00:00 TS -21.57 156.56 20 990 40 990 43 990 21 45 990
SP 18:00:00 TS -22.03 157.31 20 991 40 990 42 991 20 45 991
SP 21:00:00 TS -22.52 158.00 20 992 40 990 41 992 20 42 992
SP 23:00:00 TS -22.85 158.40 993 20 993 40 990 40 992 20 40 992
SP 1971-02-12 00:00:00 TS -23.02 158.57 20 993 40 990 40 993 20 40 993
SP 03:00:00 TS -23.57 159.00 20 993 40 990 40 993 20 40 993
SP 05:00:00 TS -23.92 159.20 993 20 993 40 990 40 993 20 40 993
SP 06:00:00 TS -24.08 159.27 20 993 40 990 40 993 20 40 993
SP 09:00:00 TS -24.49 159.40 20 993 40 990 40 993 20 40 993
SP 11:00:00 TS -24.72 159.44 994 20 994 40 990 40 993 20 40 993
SP 12:00:00 TS -24.83 159.46 20 994 40 990 40 994 19 40 994
SP 15:00:00 TS -25.09 159.50 17 994 40 990 40 994 16 40 994
SP 18:00:00 TS -25.31 159.53 15 994 40 990 40 994 14 40 994
SP 20:00:00 TS -25.46 159.56 994 13 994 40 990 40 994 12 40 994
SP 21:00:00 TS -25.53 159.59 12 994 40 990 40 994 11 40 994
SP 23:00:00 TS -25.69 159.67 995 10 995 40 990 40 994 10 40 994
SP 1971-02-13 00:00:00 TS -25.77 159.74 10 995 40 990 40 995 10 40 995
SP 03:00:00 TS -26.03 160.08 12 995 40 990 38 995 13 40 995
SP 06:00:00 TS -26.30 160.48 15 995 40 990 37 995 15 40 995
SP 09:00:00 TS -26.59 160.88 17 995 40 990 36 995 18 37 995
SP 11:00:00 TS -26.77 161.11 19 996 40 990 35 995 20 35 995
SP 12:00:00 TS -26.86 161.20 40 990 20 995 40 990 35 996 20 35 996
SP 14:00:00 TS -27.02 161.36 20 994 40 990 35 996 20 36 995
SP 15:00:00 TS -27.09 161.42 20 994 40 990 35 996 20 37 995
SP 18:00:00 TS -27.28 161.55 20 995 40 990 35 997 20 40 995
SP 21:00:00 TS -27.44 161.63 20 997 40 990 35 997 20 37 996
SP 23:00:00 TS -27.52 161.65 20 998 40 990 35 997 20 35 997
SP 1971-02-14 00:00:00 TS -27.55 161.64 40 990 20 998 40 990 35 998 20 35 998
SP 03:00:00 TS -27.65 161.57 22 998 40 990 35 998 22 35 998
SP 05:00:00 TS -27.68 161.48 24 998 40 990 35 998 24 35 998
SP 06:00:00 TS -27.68 161.44 25 998 40 990 35 998 24 35 998
SP 09:00:00 TS -27.67 161.31 27 998 40 990 35 998 26 35 998
SP 11:00:00 TS -27.64 161.22 29 998 40 990 35 998 28 35 998
SP 12:00:00 TS -27.63 161.17 40 990 30 997 40 990 35 998 28 35 998
SP 15:00:00 TS -27.57 161.02 30 997 40 990 35 997 28 35 997
SP 18:00:00 TS -27.51 160.85 30 997 40 990 35 997 29 35 997
SP 21:00:00 TS -27.46 160.67 30 997 40 990 35 997 29 35 997
SP 23:00:00 TS -27.42 160.55 30 997 40 990 35 997 30 35 997
SP 1971-02-15 00:00:00 TS -27.41 160.48 40 990 30 997 40 990 35 997 30 35 997
SP 03:00:00 TS -27.35 160.29 30 997 40 990 33 997 30 35 997
SP 06:00:00 TS -27.31 160.09 30 998 40 990 32 998 30 35 998
SP 09:00:00 TS -27.29 159.89 30 998 40 990 31 998 30 32 998
SP 11:00:00 TS -27.29 159.75 999 30 999 40 990 30 998 30 30 998
SP 12:00:00 TS -27.30 159.68 30 998 40 990 30 999 29 30 999
SP 15:00:00 TS -27.35 159.48 30 998 40 990 31 998 28 32 998
SP 18:00:00 TS -27.42 159.26 30 998 40 990 32 998 27 35 998
SP 21:00:00 TS -27.50 159.04 27 998 40 990 33 998 26 35 998
SP 23:00:00 TS -27.56 158.87 998 25 998 40 990 34 998 26 35 998
SP 1971-02-16 00:00:00 TS -27.58 158.77 25 998 40 990 35 998 25 35 998
SP 03:00:00 TS -27.65 158.48 22 998 40 990 35 998 24 35 998
SP 06:00:00 TS -27.71 158.14 20 998 40 990 35 998 22 35 998
SP 09:00:00 TS -27.77 157.76 20 998 40 990 35 998 21 35 998
SP 11:00:00 TS -27.80 157.48 998 20 998 40 990 35 998 20 35 998
SP 12:00:00 TS -27.82 157.33 20 997 40 990 35 998 22 35 998
SP 14:00:00 TS -27.86 157.01 997 26 997 40 990 35 997 28 35 997
SP 15:00:00 TS -27.89 156.85 30 996 40 990 35 997 30 35 997
SP 18:00:00 TS -27.96 156.32 996 40 996 40 990 35 996 39 35 996
SP 21:00:00 TS -28.01 155.83 47 996 40 990 37 995 47 35 996
SP 23:00:00 TS -28.01 155.50 996 52 996 40 990 39 995 53 35 996
SP 1971-02-17 00:00:00 TS -27.98 155.33 995 55 995 40 990 40 995 53 35 996
SP 03:00:00 TS -27.77 154.73 57 994 38 995 55 37 994
SP 06:00:00 TS -27.41 154.05 60 993 37 995 57 40 993
SP 09:00:00 TS -26.97 153.34 993 993 36 995 58 35 994
SP 11:00:00 TS -26.65 152.87 996 996 35 995 60 31 995
SP 12:00:00 TS -26.51 152.71 996 35 996 30 996
SP 15:00:00 TS -26.08 152.30 999 27 999
SP 17:00:00 TS -25.80 152.10 1002 1002 25 1001
SP 18:00:00 TS -25.70 152.10 25 1002

Source Information

Agency Information
USA bsh151971.txt
TOKYO
CMA
HKO
NEWDELHI
REUNION
BOM IDCKMSTM0S.csv:Line=6137:DORA
NADI
WELLINGTON TC_BT_1967_2006.csv:Line=152:DORA
DS824 aus_area.dat:463:DORA
TD9636 cons_worldwide_trop_cyclone_18710101-19891231-006:Line=8548
TD9635
NEUMANN tracks.sh:Storm=299:DORA:BSH1571:BM396
MLC

All available IBTrACS Data

SEASON BASIN SUBBASIN ISO_TIME_________ NATURE LAT LON WMO WIND WMO PRES WMO AGENCY DIST2LAND LANDFALL IFLAG USA AGENCY USA ATCF_ID USA LAT USA LON USA WIND USA SSHS BOM LAT BOM LON BOM PRES BOM PRES_METHOD WELLINGTON LAT WELLINGTON LON WELLINGTON WIND WELLINGTON PRES DS824 LAT DS824 LON DS824 STAGE DS824 WIND DS824 PRES TD9636 LAT TD9636 LON TD9636 STAGE TD9636 WIND NEUMANN LAT NEUMANN LON NEUMANN CLASS NEUMANN WIND NEUMANN PRES STORM SPEED STORM DIR
Year degrees north degrees east kts mb km km degrees north degrees east kts 1 degrees north degrees east mb degrees north degrees east kts mb degrees north degrees east kts mb degrees north degrees east kts degrees north degrees east kts mb kts degrees
1971 SP EA 1971-02-10 11:00:00 NR -19.50 152.70 1001 bom 385 375 ______O___O___ -1 -19.50 152.70 1001 -19.50 152.70 1 20 5 153
1971 SP EA 12:00:00 TS -19.59 152.73 375 363 O_____P__OP_O_ jtwc_sh SH151971 -19.60 152.70 20 -1 -19.60 152.68 1000 -19.60 152.70 TC 30 1001 -19.60 152.74 1 20 -19.50 152.90 TC 25 1001 6 160
1971 SP EA 15:00:00 TS -19.85 152.83 354 350 P_____P__PP_P_ SH151971 -19.84 152.83 22 -1 -19.88 152.67 1000 -19.89 152.89 TC 31 1000 -19.89 152.88 1 21 -19.75 152.97 TC 27 1000 6 155
1971 SP EA 18:00:00 TS -20.11 153.00 350 341 O_____P__PP_O_ jtwc_sh SH151971 -20.10 153.00 25 -1 -20.14 152.79 1000 -20.17 153.10 TC 32 999 -20.15 153.05 1 22 -20.00 153.10 TC 30 1000 6 143
1971 SP EA 20:00:00 TS -20.28 153.17 1000 bom 349 349 P_____O__PP_P_ SH151971 -20.28 153.15 25 -1 -20.30 153.00 1000 -20.34 153.27 TC 33 998 -20.31 153.20 1 23 -20.18 153.25 TC 31 999 7 134
1971 SP EA 21:00:00 TS -20.36 153.27 349 349 P_____P__PP_P_ SH151971 -20.37 153.25 25 -1 -20.37 153.15 999 -20.41 153.37 TC 33 998 -20.38 153.29 1 24 -20.26 153.34 TC 32 999 8 125
1971 SP EA 23:00:00 TS -20.51 153.51 998 bom 357 357 P_____O__PO_P_ SH151971 -20.53 153.47 25 -1 -20.50 153.50 998 -20.54 153.58 TC 34 998 -20.50 153.50 1 25 -20.43 153.57 TC 34 998 8 120
1971 SP EA 1971-02-11 00:00:00 TS -20.57 153.65 359 359 O_____P__OP_O_ jtwc_sh SH151971 -20.60 153.60 25 -1 -20.55 153.67 997 -20.60 153.70 TC 35 998 -20.55 153.62 1 24 -20.50 153.70 TC 35 998 9 109
1971 SP EA 03:00:00 TS -20.69 154.10 396 396 P_____P__PP_P_ SH151971 -20.71 154.06 25 -1 -20.68 154.16 995 -20.73 154.12 TC 37 996 -20.67 154.06 1 24 -20.67 154.16 TC 37 996 9 104
1971 SP EA 06:00:00 TS -20.80 154.63 436 436 O_____P__PP_O_ jtwc_sh SH151971 -20.80 154.60 25 -1 -20.80 154.67 993 -20.84 154.63 TC 40 994 -20.79 154.59 1 23 -20.80 154.70 TC 40 994 10 104
1971 SP EA 09:00:00 TS -20.95 155.19 477 467 P_____P__PP_P_ SH151971 -20.95 155.16 22 -1 -20.95 155.21 991 -20.98 155.19 TC 42 992 -20.95 155.18 1 22 -20.91 155.22 TC 42 992 11 108
1971 SP EA 11:00:00 TS -21.09 155.59 990 bom 475 471 P_____O__PO_P_ SH151971 -21.11 155.58 20 -1 -21.10 155.60 990 4 -21.11 155.59 TC 44 990 -21.10 155.60 2 22 -21.02 155.60 TC 44 990 13 113
1971 SP EA 12:00:00 TS -21.20 155.82 476 473 O_____P_OOP_O_ jtwc_sh SH151971 -21.20 155.80 20 -1 -21.19 155.83 990 -21.50 156.10 40 990 -21.20 155.80 TC 45 990 -21.20 155.83 2 21 -21.10 155.80 TC 45 990 15 118
1971 SP EA 15:00:00 TS -21.57 156.56 491 490 P_____P_PPP_P_ SH151971 -21.56 156.55 20 -1 -21.54 156.57 990 -21.98 156.79 40 990 -21.55 156.50 TC 43 990 -21.57 156.58 2 21 -21.45 156.48 TC 45 990 16 121
1971 SP EA 18:00:00 TS -22.03 157.31 514 507 O_____P_PPP_O_ jtwc_sh SH151971 -22.00 157.30 20 -1 -21.95 157.32 991 -22.46 157.47 40 990 -21.98 157.24 TC 42 991 -22.01 157.34 2 20 -21.90 157.20 TC 45 991 16 125
1971 SP EA 21:00:00 TS -22.52 158.00 543 543 P_____P_PPP_P_ SH151971 -22.48 157.97 20 -1 -22.44 158.01 992 -22.93 158.15 40 990 -22.47 157.93 TC 41 992 -22.48 158.03 2 20 -22.32 157.95 TC 42 992 16 129
1971 SP EA 23:00:00 TS -22.85 158.40 993 bom 559 559 P_____O_PPO_P_ SH151971 -22.83 158.35 20 -1 -22.80 158.40 993 -23.24 158.59 40 990 -22.82 158.33 TC 40 992 -22.80 158.40 1 20 -22.63 158.40 TC 40 992 15 134
1971 SP EA 1971-02-12 00:00:00 TS -23.02 158.57 573 568 O_____P_OOP_O_ jtwc_sh SH151971 -23.00 158.50 20 -1 -23.00 158.58 993 -23.40 158.80 40 990 -23.00 158.50 TC 40 993 -22.96 158.54 1 20 -22.80 158.60 TC 40 993 14 143
1971 SP EA 03:00:00 TS -23.57 159.00 588 588 P_____P_PPP_P_ SH151971 -23.51 158.83 20 -1 -23.63 159.02 993 -23.86 159.42 40 990 -23.57 158.94 TC 40 993 -23.47 158.86 1 20 -23.41 159.10 TC 40 993 13 147
1971 SP EA 05:00:00 TS -23.92 159.20 993 bom 599 596 P_____O_PPP_P_ SH151971 -23.84 158.95 20 -1 -24.00 159.20 993 -24.16 159.80 40 990 -23.94 159.14 TC 40 993 -23.81 159.00 1 20 -23.82 159.33 TC 40 993 11 154
1971 SP EA 06:00:00 TS -24.08 159.27 604 600 O_____P_POP_O_ jtwc_sh SH151971 -24.00 159.00 20 -1 -24.15 159.25 993 -24.30 159.98 40 990 -24.10 159.20 TC 40 993 -23.97 159.05 1 20 -24.00 159.40 TC 40 993 9 162
1971 SP EA 09:00:00 TS -24.49 159.40 608 605 P_____P_PPP_P_ SH151971 -24.44 159.13 20 -1 -24.51 159.25 993 -24.72 160.45 40 990 -24.49 159.25 TC 40 993 -24.43 159.15 1 20 -24.41 159.46 TC 40 993 8 166
1971 SP EA 11:00:00 TS -24.72 159.44 994 bom 605 605 P_____O_PPO_P_ SH151971 -24.69 159.18 20 -1 -24.70 159.20 994 -24.98 160.70 40 990 -24.71 159.22 TC 40 993 -24.70 159.20 1 20 -24.61 159.42 TC 40 993 7 172
1971 SP EA 12:00:00 TS -24.83 159.46 615 614 O_____P_OOP_O_ jtwc_sh SH151971 -24.80 159.20 20 -1 -24.78 159.19 994 -25.10 160.80 40 990 -24.80 159.20 TC 40 994 -24.81 159.22 1 19 -24.70 159.40 TC 40 994 6 174
1971 SP EA 15:00:00 TS -25.09 159.50 614 614 P_____P_PPP_P_ SH151971 -25.08 159.25 17 -1 -24.97 159.14 994 -25.44 161.01 40 990 -25.07 159.20 TC 40 994 -25.07 159.23 1 16 -24.91 159.39 TC 40 994 5 173
1971 SP EA 18:00:00 TS -25.31 159.53 614 614 O_____P_PPP_O_ jtwc_sh SH151971 -25.30 159.30 15 -1 -25.15 159.14 994 -25.75 161.10 40 990 -25.29 159.23 TC 40 994 -25.27 159.24 1 14 -25.10 159.40 TC 40 994 4 171
1971 SP EA 20:00:00 TS -25.46 159.56 994 bom 625 625 P_____O_PPP_P_ SH151971 -25.44 159.32 13 -1 -25.30 159.20 994 -25.94 161.12 40 990 -25.42 159.28 TC 40 994 -25.40 159.27 1 12 -25.26 159.42 TC 40 994 5 165
1971 SP EA 21:00:00 TS -25.53 159.59 625 625 P_____P_PPP_P_ SH151971 -25.50 159.34 12 -1 -25.40 159.25 994 -26.03 161.12 40 990 -25.49 159.31 TC 40 994 -25.46 159.30 1 11 -25.34 159.44 TC 40 994 5 156
1971 SP EA 23:00:00 TS -25.69 159.67 995 bom 637 637 P_____O_PPO_P_ SH151971 -25.63 159.42 10 -1 -25.60 159.40 995 -26.21 161.11 40 990 -25.63 159.43 TC 40 994 -25.60 159.40 1 10 -25.51 159.53 TC 40 994 6 149
1971 SP EA 1971-02-13 00:00:00 TS -25.77 159.74 638 638 O_____P_OOP_O_ jtwc_sh SH151971 -25.70 159.50 10 -1 -25.70 159.50 995 -26.30 161.10 40 990 -25.70 159.50 TC 40 995 -25.69 159.51 1 10 -25.60 159.60 TC 40 995 8 133
1971 SP MM 03:00:00 TS -26.03 160.08 681 681 P_____P_PPP_P_ SH151971 -25.94 159.90 12 -1 -25.97 159.89 995 -26.58 161.10 40 990 -25.98 159.88 TC 38 995 -25.97 159.91 1 13 -25.84 159.95 TC 40 995 9 129
1971 SP MM 06:00:00 TS -26.30 160.48 706 702 O_____P_PPP_O_ jtwc_sh SH151971 -26.20 160.40 15 -1 -26.24 160.37 995 -26.85 161.08 40 990 -26.27 160.34 TC 37 995 -26.25 160.39 1 15 -26.10 160.40 TC 40 995 9 128
1971 SP MM 09:00:00 TS -26.59 160.88 708 703 P_____P_PPP_P_ SH151971 -26.51 160.84 17 -1 -26.51 160.84 995 -27.09 161.07 40 990 -26.55 160.81 TC 36 995 -26.53 160.84 1 18 -26.40 160.88 TC 37 995 9 130
1971 SP MM 11:00:00 TS -26.77 161.11 715 710 P_____O_PPO_P_ SH151971 -26.71 161.10 19 -1 -26.70 161.10 996 -27.24 161.08 40 990 -26.72 161.08 TC 35 995 -26.70 161.10 1 20 -26.60 161.18 TC 35 995 8 133
1971 SP MM 12:00:00 TS -26.86 161.20 40 990 wellington 719 714 O_____P_OOP_O_ jtwc_sh SH151971 -26.80 161.20 20 -1 -26.80 161.21 995 -27.30 161.10 40 990 -26.80 161.20 TC 35 996 -26.79 161.19 1 20 -26.70 161.30 TC 35 996 7 138
1971 SP MM 14:00:00 TS -27.02 161.36 719 719 P_____O_PPP_P_ SH151971 -26.95 161.35 20 -1 -27.00 161.40 994 -27.43 161.20 40 990 -26.95 161.37 TC 35 996 -26.95 161.35 1 20 -26.89 161.49 TC 36 995 6 140
1971 SP MM 15:00:00 TS -27.09 161.42 728 724 P_____P_PPP_P_ SH151971 -27.02 161.40 20 -1 -27.08 161.47 994 -27.48 161.26 40 990 -27.02 161.43 TC 35 996 -27.03 161.41 1 20 -26.97 161.56 TC 37 995 5 147
1971 SP MM 18:00:00 TS -27.28 161.55 737 737 O_____P_PPP_O_ jtwc_sh SH151971 -27.20 161.50 20 -1 -27.28 161.61 995 -27.63 161.45 40 990 -27.21 161.57 TC 35 997 -27.24 161.54 1 20 -27.20 161.70 TC 40 995 4 151
1971 SP MM 21:00:00 TS -27.44 161.63 746 746 P_____P_PPP_P_ SH151971 -27.37 161.59 20 -1 -27.42 161.63 997 -27.73 161.62 40 990 -27.37 161.62 TC 35 997 -27.41 161.60 1 20 -27.37 161.80 TC 37 996 3 163
1971 SP MM 23:00:00 TS -27.52 161.65 754 754 P_____O_PPO_P_ SH151971 -27.46 161.61 20 -1 -27.50 161.60 998 -27.78 161.69 40 990 -27.46 161.62 TC 35 997 -27.50 161.60 1 20 -27.46 161.81 TC 35 997 2 176
1971 SP MM 1971-02-14 00:00:00 TS -27.55 161.64 40 990 wellington 763 763 O_____P_OOP_O_ jtwc_sh SH151971 -27.50 161.60 20 -1 -27.55 161.58 998 -27.80 161.70 40 990 -27.50 161.60 TC 35 998 -27.54 161.60 1 20 -27.50 161.80 TC 35 998 2 206
1971 SP MM 03:00:00 TS -27.65 161.57 763 763 P_____P_PPP_P_ SH151971 -27.57 161.52 22 -1 -27.66 161.48 998 -27.85 161.63 40 990 -27.63 161.53 TC 35 998 -27.60 161.55 1 22 -27.63 161.72 TC 35 998 2 228
1971 SP MM 05:00:00 TS -27.68 161.48 776 767 P_____O_PPP_P_ SH151971 -27.59 161.44 24 -1 -27.70 161.40 998 -27.86 161.53 40 990 -27.69 161.45 TC 35 998 -27.62 161.48 1 24 -27.69 161.64 TC 35 998 2 251
1971 SP MM 06:00:00 TS -27.68 161.44 767 757 O_____P_POP_O_ jtwc_sh SH151971 -27.60 161.40 25 -1 -27.70 161.37 998 -27.86 161.47 40 990 -27.70 161.40 TC 35 998 -27.63 161.44 1 24 -27.70 161.60 TC 35 998 2 273
1971 SP MM 09:00:00 TS -27.67 161.31 757 748 P_____P_PPP_P_ SH151971 -27.61 161.31 27 -1 -27.65 161.27 998 -27.84 161.25 40 990 -27.67 161.26 TC 35 998 -27.62 161.30 1 26 -27.67 161.51 TC 35 998 2 283
1971 SP MM 11:00:00 TS -27.64 161.22 748 748 P_____O_PPO_P_ SH151971 -27.61 161.24 29 -1 -27.60 161.20 998 -27.82 161.08 40 990 -27.63 161.15 TC 35 998 -27.60 161.20 1 28 -27.62 161.44 TC 35 998 3 290
1971 SP MM 12:00:00 TS -27.63 161.17 40 990 wellington 748 729 O_____P_OOP_O_ jtwc_sh SH151971 -27.60 161.20 30 -1 -27.58 161.16 997 -27.80 161.00 40 990 -27.60 161.10 TC 35 998 -27.59 161.16 1 28 -27.60 161.40 TC 35 998 3 291
1971 SP MM 15:00:00 TS -27.57 161.02 729 721 P_____P_PPP_P_ SH151971 -27.56 161.06 30 -1 -27.54 161.03 997 -27.69 160.76 40 990 -27.55 160.96 TC 35 997 -27.56 161.03 1 28 -27.55 161.26 TC 35 997 3 292
1971 SP MM 18:00:00 TS -27.51 160.85 721 701 O_____P_PPP_O_ jtwc_sh SH151971 -27.50 160.90 30 -1 -27.49 160.88 997 -27.58 160.51 40 990 -27.51 160.81 TC 35 997 -27.51 160.88 1 29 -27.50 161.10 TC 35 997 3 290
1971 SP MM 21:00:00 TS -27.46 160.67 701 691 P_____P_PPP_P_ SH151971 -27.46 160.71 30 -1 -27.44 160.72 997 -27.49 160.25 40 990 -27.46 160.66 TC 35 997 -27.45 160.72 1 29 -27.46 160.96 TC 35 997 3 288
1971 SP MM 23:00:00 TS -27.42 160.55 683 683 P_____O_PPO_P_ SH151971 -27.42 160.57 30 -1 -27.40 160.60 997 -27.49 160.08 40 990 -27.42 160.56 TC 35 997 -27.40 160.60 1 30 -27.42 160.86 TC 35 997 4 287
1971 SP MM 1971-02-15 00:00:00 TS -27.41 160.48 40 990 wellington 683 664 O_____P_OOP_O_ jtwc_sh SH151971 -27.40 160.50 30 -1 -27.37 160.54 997 -27.50 160.00 40 990 -27.40 160.50 TC 35 997 -27.37 160.54 1 30 -27.40 160.80 TC 35 997 4 288
1971 SP MM 03:00:00 TS -27.35 160.29 664 646 P_____P_PPP_P_ SH151971 -27.30 160.30 30 -1 -27.28 160.35 997 -27.69 159.79 40 990 -27.31 160.32 TC 33 997 -27.28 160.35 1 30 -27.30 160.61 TC 35 997 4 286
1971 SP MM 06:00:00 TS -27.31 160.09 646 627 O_____P_PPP_O_ jtwc_sh SH151971 -27.20 160.10 30 -1 -27.18 160.15 998 -27.97 159.59 40 990 -27.21 160.12 TC 32 998 -27.18 160.15 1 30 -27.20 160.40 TC 35 998 4 280
1971 SP EA 09:00:00 TS -27.29 159.89 627 617 P_____P_PPP_P_ SH151971 -27.13 159.90 30 -1 -27.12 159.94 998 -28.26 159.40 40 990 -27.14 159.91 TC 31 998 -27.12 159.94 1 30 -27.13 160.21 TC 32 998 4 273
1971 SP EA 11:00:00 TS -27.29 159.75 999 bom 607 607 P_____O_PPO_P_ SH151971 -27.10 159.77 30 -1 -27.10 159.80 999 -28.43 159.27 40 990 -27.11 159.77 TC 30 998 -27.10 159.80 1 30 -27.10 160.07 TC 30 998 4 266
1971 SP EA 12:00:00 TS -27.30 159.68 607 588 O_____P_OOP_O_ jtwc_sh SH151971 -27.10 159.70 30 -1 -27.10 159.73 998 -28.50 159.20 40 990 -27.10 159.70 TC 30 999 -27.10 159.73 1 29 -27.10 160.00 TC 30 999 4 257
1971 SP EA 15:00:00 TS -27.35 159.48 588 567 P_____P_PPP_P_ SH151971 -27.13 159.51 30 -1 -27.15 159.54 998 -28.62 159.01 40 990 -27.13 159.51 TC 31 998 -27.15 159.54 1 28 -27.13 159.75 TC 32 998 4 252
1971 SP EA 18:00:00 TS -27.42 159.26 567 536 O_____P_PPP_O_ jtwc_sh SH151971 -27.20 159.30 30 -1 -27.23 159.32 998 -28.68 158.80 40 990 -27.20 159.30 TC 32 998 -27.23 159.32 1 27 -27.20 159.50 TC 35 998 4 249
1971 SP EA 21:00:00 TS -27.50 159.04 536 524 P_____P_PPP_P_ SH151971 -27.29 159.07 27 -1 -27.33 159.08 998 -28.67 158.57 40 990 -27.29 159.07 TC 33 998 -27.33 159.08 1 26 -27.29 159.31 TC 35 998 5 249
1971 SP EA 23:00:00 TS -27.56 158.87 998 bom 524 514 P_____O_PPO_P_ SH151971 -27.36 158.89 25 -1 -27.40 158.90 998 -28.63 158.40 40 990 -27.36 158.90 TC 34 998 -27.40 158.90 1 26 -27.36 159.18 TC 35 998 5 250
1971 SP EA 1971-02-16 00:00:00 TS -27.58 158.77 514 485 O_____P_OOP_O_ jtwc_sh SH151971 -27.40 158.80 25 -1 -27.44 158.81 998 -28.60 158.30 40 990 -27.40 158.80 TC 35 998 -27.43 158.81 1 25 -27.40 159.10 TC 35 998 5 255
1971 SP EA 03:00:00 TS -27.65 158.48 485 454 P_____P_PPP_P_ SH151971 -27.50 158.52 22 -1 -27.56 158.52 998 -28.46 158.00 40 990 -27.49 158.49 TC 35 998 -27.54 158.51 1 24 -27.50 158.77 TC 35 998 6 257
1971 SP EA 06:00:00 TS -27.71 158.14 445 414 O_____P_PPP_O_ jtwc_sh SH151971 -27.60 158.20 20 -1 -27.68 158.19 998 -28.26 157.65 40 990 -27.59 158.14 TC 35 998 -27.64 158.16 1 22 -27.60 158.40 TC 35 998 6 259
1971 SP EA 09:00:00 TS -27.77 157.76 414 385 P_____P_PPP_P_ SH151971 -27.70 157.83 20 -1 -27.77 157.80 998 -28.06 157.26 40 990 -27.70 157.74 TC 35 998 -27.74 157.78 1 21 -27.71 158.07 TC 35 998 7 261
1971 SP EA 11:00:00 TS -27.80 157.48 998 bom 385 375 P_____O_PPO_P_ SH151971 -27.77 157.55 20 -1 -27.80 157.50 998 -27.95 156.96 40 990 -27.77 157.45 TC 35 998 -27.80 157.50 1 20 -27.77 157.83 TC 35 998 8 262
1971 SP EA 12:00:00 TS -27.82 157.33 365 334 O_____P_OOP_O_ jtwc_sh SH151971 -27.80 157.40 20 -1 -27.79 157.34 997 -27.90 156.80 40 990 -27.80 157.30 TC 35 998 -27.84 157.36 1 22 -27.80 157.70 TC 35 998 8 262
1971 SP EA 14:00:00 TS -27.86 157.01 997 bom 334 325 P_____O_PPP_P_ SH151971 -27.88 157.09 26 -1 -27.80 157.00 997 -27.83 156.46 40 990 -27.88 156.98 TC 35 997 -27.93 157.08 1 28 -27.84 157.39 TC 35 997 9 261
1971 SP EA 15:00:00 TS -27.89 156.85 315 275 P_____P_PPP_P_ SH151971 -27.91 156.92 30 -1 -27.84 156.83 996 -27.81 156.28 40 990 -27.92 156.81 TC 35 997 -27.97 156.93 1 30 -27.86 157.22 TC 35 997 9 261
1971 SP EA 18:00:00 TS -27.96 156.32 996 bom 265 226 O_____O_POP_O_ jtwc_sh SH151971 -28.00 156.40 40 0 -28.00 156.30 996 -27.77 155.72 40 990 -28.00 156.30 TC 35 996 -28.06 156.44 1 39 -27.90 156.70 TC 35 996 9 262
1971 SP EA 21:00:00 TS -28.01 155.83 216 187 P_____P_PPP_P_ SH151971 -28.06 155.87 47 0 -28.01 155.84 996 -27.78 155.12 40 990 -28.05 155.82 TC 37 995 -28.06 155.90 1 47 -28.00 156.23 TC 35 996 9 267
1971 SP EA 23:00:00 TS -28.01 155.50 996 bom 187 177 P_____O_PPO_P_ SH151971 -28.04 155.50 52 0 -28.00 155.50 996 -27.79 154.71 40 990 -28.04 155.48 TC 39 995 -28.00 155.50 2 53 -28.02 155.89 TC 35 996 9 274
1971 SP EA 1971-02-17 00:00:00 TS -27.98 155.33 995 bom 168 125 O_____O_OOP_O_ jtwc_sh SH151971 -28.00 155.30 55 0 -28.00 155.30 995 -27.80 154.50 40 990 -28.00 155.30 TC 40 995 -27.94 155.29 2 53 -28.00 155.70 TC 35 996 11 289
1971 SP EA 03:00:00 TS -27.77 154.73 116 78 P_____P__PP_P_ SH151971 -27.76 154.67 57 0 -27.86 154.65 994 -27.77 154.70 TC 38 995 -27.69 154.63 2 55 -27.77 155.03 TC 37 994 13 297
1971 SP EA 06:00:00 TS -27.41 154.05 79 22 O_____P__PP_O_ jtwc_sh SH151971 -27.40 154.00 60 0 -27.51 153.94 993 -27.40 154.03 TC 37 995 -27.33 153.92 2 57 -27.40 154.30 TC 40 993 15 303
1971 SP EA 09:00:00 TS -26.97 153.34 993 bom 14 0 ______O__PP_P_ SH151971 -1 -27.00 153.20 993 -26.93 153.33 TC 36 995 -26.90 153.19 2 58 -27.02 153.55 TC 35 994 16 306
1971 SP EA 11:00:00 TS -26.65 152.87 996 bom 0 0 ______O__PO_P_ SH151971 -1 -26.60 152.70 996 -26.58 152.84 TC 35 995 -26.60 152.70 2 60 -26.74 153.10 TC 31 995 15 310
1971 SP EA 12:00:00 TS -26.51 152.71 0 0 ______P__O__O_ -1 -26.42 152.50 996 -26.40 152.60 TC 35 996 2 -26.60 152.90 TC 30 996 12 318
1971 SP EA 15:00:00 TS -26.08 152.30 0 0 ______P_____P_ -1 -25.96 152.09 999 TC 2 -26.15 152.44 TC 27 999 11 322
1971 SP EA 17:00:00 TS -25.80 152.10 1002 bom 0 0 ______O_____P_ -1 -25.70 151.90 1002 TC 2 -25.85 152.21 TC 25 1001 8 335
1971 SP EA 18:00:00 TS -25.70 152.10 0 ____________O_ -1 TC 2 -25.70 152.10 TC 25 1002 6 346